sensor_id;sensor_type;location;lat;lon;timestamp;P1;durP1;ratioP1;P2;durP2;ratioP2
7879;SDS011;3985;49.366;2.738;2023-05-07T00:01:28;9.00;;;9.00;;
7879;SDS011;3985;49.366;2.738;2023-05-07T00:03:56;10.50;;;9.75;;
7879;SDS011;3985;49.366;2.738;2023-05-07T00:06:25;10.00;;;10.00;;
7879;SDS011;3985;49.366;2.738;2023-05-07T00:08:53;9.00;;;9.00;;
7879;SDS011;3985;49.366;2.738;2023-05-07T00:11:22;10.50;;;10.50;;
7879;SDS011;3985;49.366;2.738;2023-05-07T00:13:49;10.75;;;10.75;;
7879;SDS011;3985;49.366;2.738;2023-05-07T00:16:16;15.25;;;14.00;;
7879;SDS011;3985;49.366;2.738;2023-05-07T00:18:44;14.25;;;12.75;;
7879;SDS011;3985;49.366;2.738;2023-05-07T00:21:11;23.25;;;19.00;;
7879;SDS011;3985;49.366;2.738;2023-05-07T00:23:40;17.50;;;14.75;;
7879;SDS011;3985;49.366;2.738;2023-05-07T00:26:07;16.75;;;16.75;;
7879;SDS011;3985;49.366;2.738;2023-05-07T00:28:34;16.50;;;16.50;;
7879;SDS011;3985;49.366;2.738;2023-05-07T00:31:02;16.00;;;14.75;;
7879;SDS011;3985;49.366;2.738;2023-05-07T00:33:29;12.00;;;12.00;;
7879;SDS011;3985;49.366;2.738;2023-05-07T00:35:57;15.00;;;13.50;;
7879;SDS011;3985;49.366;2.738;2023-05-07T00:38:26;11.50;;;11.00;;
7879;SDS011;3985;49.366;2.738;2023-05-07T00:40:54;14.50;;;13.50;;
7879;SDS011;3985;49.366;2.738;2023-05-07T00:43:23;16.75;;;15.25;;
7879;SDS011;3985;49.366;2.738;2023-05-07T00:45:50;17.75;;;10.25;;
7879;SDS011;3985;49.366;2.738;2023-05-07T00:48:18;11.50;;;11.50;;
7879;SDS011;3985;49.366;2.738;2023-05-07T00:50:45;8.25;;;8.25;;
7879;SDS011;3985;49.366;2.738;2023-05-07T00:53:13;2.00;;;2.00;;
7879;SDS011;3985;49.366;2.738;2023-05-07T00:55:40;2.00;;;2.00;;
7879;SDS011;3985;49.366;2.738;2023-05-07T00:58:09;2.00;;;2.00;;
7879;SDS011;3985;49.366;2.738;2023-05-07T01:00:36;4.50;;;4.50;;
7879;SDS011;3985;49.366;2.738;2023-05-07T01:03:03;3.25;;;2.75;;
7879;SDS011;3985;49.366;2.738;2023-05-07T01:05:31;3.25;;;3.25;;
7879;SDS011;3985;49.366;2.738;2023-05-07T01:08:02;6.75;;;3.25;;
7879;SDS011;3985;49.366;2.738;2023-05-07T01:10:31;4.25;;;4.25;;
7879;SDS011;3985;49.366;2.738;2023-05-07T01:12:58;4.25;;;4.25;;
7879;SDS011;3985;49.366;2.738;2023-05-07T01:15:30;5.50;;;5.50;;
7879;SDS011;3985;49.366;2.738;2023-05-07T01:17:57;8.00;;;8.00;;
7879;SDS011;3985;49.366;2.738;2023-05-07T01:20:25;6.25;;;6.25;;
7879;SDS011;3985;49.366;2.738;2023-05-07T01:22:53;8.75;;;6.50;;
7879;SDS011;3985;49.366;2.738;2023-05-07T01:25:21;8.00;;;6.25;;
7879;SDS011;3985;49.366;2.738;2023-05-07T01:27:49;11.25;;;10.50;;
7879;SDS011;3985;49.366;2.738;2023-05-07T01:30:16;9.25;;;9.25;;
7879;SDS011;3985;49.366;2.738;2023-05-07T01:32:47;9.50;;;9.25;;
7879;SDS011;3985;49.366;2.738;2023-05-07T01:35:18;12.00;;;10.75;;
7879;SDS011;3985;49.366;2.738;2023-05-07T01:37:47;11.00;;;9.75;;
7879;SDS011;3985;49.366;2.738;2023-05-07T01:40:16;10.50;;;10.50;;
7879;SDS011;3985;49.366;2.738;2023-05-07T01:42:44;9.50;;;9.00;;
7879;SDS011;3985;49.366;2.738;2023-05-07T01:45:13;9.25;;;8.75;;
7879;SDS011;3985;49.366;2.738;2023-05-07T01:47:40;8.75;;;8.75;;
7879;SDS011;3985;49.366;2.738;2023-05-07T01:50:08;7.00;;;7.00;;
7879;SDS011;3985;49.366;2.738;2023-05-07T01:52:36;6.75;;;6.25;;
7879;SDS011;3985;49.366;2.738;2023-05-07T01:55:05;7.50;;;6.00;;
7879;SDS011;3985;49.366;2.738;2023-05-07T01:57:34;6.75;;;6.75;;
7879;SDS011;3985;49.366;2.738;2023-05-07T02:00:01;8.00;;;6.50;;
7879;SDS011;3985;49.366;2.738;2023-05-07T02:02:33;2.75;;;2.75;;
7879;SDS011;3985;49.366;2.738;2023-05-07T02:05:00;4.00;;;4.00;;
7879;SDS011;3985;49.366;2.738;2023-05-07T02:07:28;3.00;;;3.00;;
7879;SDS011;3985;49.366;2.738;2023-05-07T02:09:55;5.25;;;3.50;;
7879;SDS011;3985;49.366;2.738;2023-05-07T02:12:26;4.50;;;4.50;;
7879;SDS011;3985;49.366;2.738;2023-05-07T02:14:54;3.00;;;3.00;;
7879;SDS011;3985;49.366;2.738;2023-05-07T02:17:24;3.25;;;3.00;;
7879;SDS011;3985;49.366;2.738;2023-05-07T02:19:51;2.00;;;2.00;;
7879;SDS011;3985;49.366;2.738;2023-05-07T02:22:19;3.75;;;3.75;;
7879;SDS011;3985;49.366;2.738;2023-05-07T02:24:46;2.75;;;2.75;;
7879;SDS011;3985;49.366;2.738;2023-05-07T02:27:14;3.00;;;3.00;;
7879;SDS011;3985;49.366;2.738;2023-05-07T02:29:41;3.25;;;3.25;;
7879;SDS011;3985;49.366;2.738;2023-05-07T02:32:10;4.00;;;4.00;;
7879;SDS011;3985;49.366;2.738;2023-05-07T02:34:37;3.00;;;3.00;;
7879;SDS011;3985;49.366;2.738;2023-05-07T02:37:04;3.75;;;3.75;;
7879;SDS011;3985;49.366;2.738;2023-05-07T02:39:31;3.00;;;3.00;;
7879;SDS011;3985;49.366;2.738;2023-05-07T02:41:59;3.00;;;3.00;;
7879;SDS011;3985;49.366;2.738;2023-05-07T02:44:27;4.00;;;4.00;;
7879;SDS011;3985;49.366;2.738;2023-05-07T02:46:56;3.00;;;3.00;;
7879;SDS011;3985;49.366;2.738;2023-05-07T02:49:25;4.00;;;4.00;;
7879;SDS011;3985;49.366;2.738;2023-05-07T02:51:52;4.00;;;4.00;;
7879;SDS011;3985;49.366;2.738;2023-05-07T02:54:20;2.25;;;2.25;;
7879;SDS011;3985;49.366;2.738;2023-05-07T02:56:47;3.00;;;3.00;;
7879;SDS011;3985;49.366;2.738;2023-05-07T02:59:15;4.00;;;4.00;;
7879;SDS011;3985;49.366;2.738;2023-05-07T03:01:42;3.75;;;3.75;;
7879;SDS011;3985;49.366;2.738;2023-05-07T03:04:10;4.25;;;3.25;;
7879;SDS011;3985;49.366;2.738;2023-05-07T03:06:39;4.25;;;4.25;;
7879;SDS011;3985;49.366;2.738;2023-05-07T03:09:06;5.50;;;3.00;;
7879;SDS011;3985;49.366;2.738;2023-05-07T03:11:33;5.00;;;3.75;;
7879;SDS011;3985;49.366;2.738;2023-05-07T03:14:01;3.00;;;3.00;;
7879;SDS011;3985;49.366;2.738;2023-05-07T03:16:28;3.00;;;3.00;;
7879;SDS011;3985;49.366;2.738;2023-05-07T03:18:56;3.00;;;3.00;;
7879;SDS011;3985;49.366;2.738;2023-05-07T03:21:23;4.00;;;4.00;;
7879;SDS011;3985;49.366;2.738;2023-05-07T03:23:52;3.00;;;3.00;;
7879;SDS011;3985;49.366;2.738;2023-05-07T03:26:20;4.00;;;3.00;;
7879;SDS011;3985;49.366;2.738;2023-05-07T03:28:47;3.00;;;3.00;;
7879;SDS011;3985;49.366;2.738;2023-05-07T03:31:14;3.00;;;3.00;;
7879;SDS011;3985;49.366;2.738;2023-05-07T03:33:49;2.00;;;2.00;;
7879;SDS011;3985;49.366;2.738;2023-05-07T03:36:18;2.00;;;2.00;;
7879;SDS011;3985;49.366;2.738;2023-05-07T03:38:45;1.00;;;1.00;;
7879;SDS011;3985;49.366;2.738;2023-05-07T03:41:14;3.50;;;3.50;;
7879;SDS011;3985;49.366;2.738;2023-05-07T03:43:41;3.00;;;3.00;;
7879;SDS011;3985;49.366;2.738;2023-05-07T03:46:08;3.00;;;1.25;;
7879;SDS011;3985;49.366;2.738;2023-05-07T03:48:36;3.25;;;2.00;;
7879;SDS011;3985;49.366;2.738;2023-05-07T03:51:03;1.50;;;1.50;;
7879;SDS011;3985;49.366;2.738;2023-05-07T03:53:30;2.50;;;2.50;;
7879;SDS011;3985;49.366;2.738;2023-05-07T03:55:58;2.25;;;2.25;;
7879;SDS011;3985;49.366;2.738;2023-05-07T03:58:26;2.00;;;2.00;;
7879;SDS011;3985;49.366;2.738;2023-05-07T04:00:54;0.25;;;0.25;;
7879;SDS011;3985;49.366;2.738;2023-05-07T04:03:21;3.00;;;2.25;;
7879;SDS011;3985;49.366;2.738;2023-05-07T04:05:48;1.25;;;1.25;;
7879;SDS011;3985;49.366;2.738;2023-05-07T04:08:15;3.00;;;3.00;;
7879;SDS011;3985;49.366;2.738;2023-05-07T04:10:43;3.00;;;3.00;;
7879;SDS011;3985;49.366;2.738;2023-05-07T04:13:12;2.00;;;2.00;;
7879;SDS011;3985;49.366;2.738;2023-05-07T04:15:41;1.75;;;1.75;;
7879;SDS011;3985;49.366;2.738;2023-05-07T04:18:08;2.00;;;2.00;;
7879;SDS011;3985;49.366;2.738;2023-05-07T04:20:36;2.75;;;1.50;;
7879;SDS011;3985;49.366;2.738;2023-05-07T04:23:03;2.00;;;2.00;;
7879;SDS011;3985;49.366;2.738;2023-05-07T04:25:30;1.25;;;1.25;;
7879;SDS011;3985;49.366;2.738;2023-05-07T04:27:58;2.00;;;2.00;;
7879;SDS011;3985;49.366;2.738;2023-05-07T04:30:28;1.00;;;1.00;;
7879;SDS011;3985;49.366;2.738;2023-05-07T04:32:57;2.00;;;2.00;;
7879;SDS011;3985;49.366;2.738;2023-05-07T04:35:24;0.25;;;0.25;;
7879;SDS011;3985;49.366;2.738;2023-05-07T04:37:52;2.00;;;2.00;;
7879;SDS011;3985;49.366;2.738;2023-05-07T04:40:20;2.00;;;2.00;;
7879;SDS011;3985;49.366;2.738;2023-05-07T04:42:47;2.00;;;2.00;;
7879;SDS011;3985;49.366;2.738;2023-05-07T04:45:14;1.00;;;1.00;;
7879;SDS011;3985;49.366;2.738;2023-05-07T04:47:41;0.00;;;0.00;;
7879;SDS011;3985;49.366;2.738;2023-05-07T04:50:10;1.00;;;1.00;;
7879;SDS011;3985;49.366;2.738;2023-05-07T04:52:38;1.00;;;1.00;;
7879;SDS011;3985;49.366;2.738;2023-05-07T04:55:07;1.00;;;1.00;;
7879;SDS011;3985;49.366;2.738;2023-05-07T04:57:35;1.00;;;1.00;;
7879;SDS011;3985;49.366;2.738;2023-05-07T05:00:06;1.00;;;1.00;;
7879;SDS011;3985;49.366;2.738;2023-05-07T05:02:35;1.50;;;1.50;;
7879;SDS011;3985;49.366;2.738;2023-05-07T05:05:02;1.00;;;1.00;;
7879;SDS011;3985;49.366;2.738;2023-05-07T05:07:31;1.00;;;1.00;;
7879;SDS011;3985;49.366;2.738;2023-05-07T05:09:59;1.00;;;1.00;;
7879;SDS011;3985;49.366;2.738;2023-05-07T05:12:28;1.00;;;1.00;;
7879;SDS011;3985;49.366;2.738;2023-05-07T05:14:55;2.00;;;1.00;;
7879;SDS011;3985;49.366;2.738;2023-05-07T05:17:25;2.00;;;2.00;;
7879;SDS011;3985;49.366;2.738;2023-05-07T05:19:55;3.00;;;1.00;;
7879;SDS011;3985;49.366;2.738;2023-05-07T05:22:22;2.00;;;2.00;;
7879;SDS011;3985;49.366;2.738;2023-05-07T05:24:53;2.50;;;2.50;;
7879;SDS011;3985;49.366;2.738;2023-05-07T05:27:21;2.00;;;2.00;;
7879;SDS011;3985;49.366;2.738;2023-05-07T05:29:48;1.25;;;1.25;;
7879;SDS011;3985;49.366;2.738;2023-05-07T05:32:15;1.25;;;1.25;;
7879;SDS011;3985;49.366;2.738;2023-05-07T05:34:43;2.00;;;2.00;;
7879;SDS011;3985;49.366;2.738;2023-05-07T05:37:10;1.00;;;1.00;;
7879;SDS011;3985;49.366;2.738;2023-05-07T05:40:18;2.50;;;2.50;;
7879;SDS011;3985;49.366;2.738;2023-05-07T05:42:39;3.75;;;3.75;;
7879;SDS011;3985;49.366;2.738;2023-05-07T05:45:27;3.00;;;3.00;;
7879;SDS011;3985;49.366;2.738;2023-05-07T05:47:57;4.25;;;4.25;;
7879;SDS011;3985;49.366;2.738;2023-05-07T05:50:49;5.00;;;5.00;;
7879;SDS011;3985;49.366;2.738;2023-05-07T05:53:54;5.25;;;5.25;;
7879;SDS011;3985;49.366;2.738;2023-05-07T05:56:24;3.75;;;3.50;;
7879;SDS011;3985;49.366;2.738;2023-05-07T05:58:52;7.25;;;4.75;;
7879;SDS011;3985;49.366;2.738;2023-05-07T06:01:19;4.00;;;4.00;;
7879;SDS011;3985;49.366;2.738;2023-05-07T06:03:54;5.50;;;5.50;;
7879;SDS011;3985;49.366;2.738;2023-05-07T06:06:22;5.00;;;5.00;;
7879;SDS011;3985;49.366;2.738;2023-05-07T06:08:49;7.75;;;7.75;;
7879;SDS011;3985;49.366;2.738;2023-05-07T06:11:16;5.50;;;5.50;;
7879;SDS011;3985;49.366;2.738;2023-05-07T06:13:45;10.00;;;7.00;;
7879;SDS011;3985;49.366;2.738;2023-05-07T06:19:00;6.25;;;6.25;;
7879;SDS011;3985;49.366;2.738;2023-05-07T06:21:27;6.25;;;6.25;;
7879;SDS011;3985;49.366;2.738;2023-05-07T06:23:55;4.75;;;4.75;;
7879;SDS011;3985;49.366;2.738;2023-05-07T06:26:22;4.50;;;4.50;;
7879;SDS011;3985;49.366;2.738;2023-05-07T06:28:52;5.50;;;5.50;;
7879;SDS011;3985;49.366;2.738;2023-05-07T06:31:20;2.75;;;2.75;;
7879;SDS011;3985;49.366;2.738;2023-05-07T06:33:47;5.00;;;4.25;;
7879;SDS011;3985;49.366;2.738;2023-05-07T06:36:15;6.25;;;5.00;;
7879;SDS011;3985;49.366;2.738;2023-05-07T06:38:42;5.25;;;5.25;;
7879;SDS011;3985;49.366;2.738;2023-05-07T06:41:10;5.50;;;5.50;;
7879;SDS011;3985;49.366;2.738;2023-05-07T06:43:37;5.25;;;5.25;;
7879;SDS011;3985;49.366;2.738;2023-05-07T06:46:06;8.25;;;7.75;;
7879;SDS011;3985;49.366;2.738;2023-05-07T06:48:33;6.00;;;6.00;;
7879;SDS011;3985;49.366;2.738;2023-05-07T06:51:00;5.25;;;5.25;;
7879;SDS011;3985;49.366;2.738;2023-05-07T06:53:28;5.75;;;4.25;;
7879;SDS011;3985;49.366;2.738;2023-05-07T06:55:56;4.75;;;4.75;;
7879;SDS011;3985;49.366;2.738;2023-05-07T06:58:23;3.25;;;3.25;;
7879;SDS011;3985;49.366;2.738;2023-05-07T07:00:50;3.00;;;3.00;;
7879;SDS011;3985;49.366;2.738;2023-05-07T07:03:20;3.50;;;3.50;;
7879;SDS011;3985;49.366;2.738;2023-05-07T07:05:47;2.75;;;2.75;;
7879;SDS011;3985;49.366;2.738;2023-05-07T07:08:18;2.00;;;2.00;;
7879;SDS011;3985;49.366;2.738;2023-05-07T07:10:46;2.25;;;2.25;;
7879;SDS011;3985;49.366;2.738;2023-05-07T07:13:13;4.25;;;3.00;;
7879;SDS011;3985;49.366;2.738;2023-05-07T07:15:40;3.00;;;2.00;;
7879;SDS011;3985;49.366;2.738;2023-05-07T07:18:07;2.00;;;2.00;;
7879;SDS011;3985;49.366;2.738;2023-05-07T07:20:36;1.00;;;1.00;;
7879;SDS011;3985;49.366;2.738;2023-05-07T07:23:03;1.75;;;1.75;;
7879;SDS011;3985;49.366;2.738;2023-05-07T07:25:30;2.00;;;2.00;;
7879;SDS011;3985;49.366;2.738;2023-05-07T07:27:58;1.00;;;1.00;;
7879;SDS011;3985;49.366;2.738;2023-05-07T07:30:25;2.75;;;2.00;;
7879;SDS011;3985;49.366;2.738;2023-05-07T07:32:53;1.00;;;1.00;;
7879;SDS011;3985;49.366;2.738;2023-05-07T07:35:25;1.00;;;1.00;;
7879;SDS011;3985;49.366;2.738;2023-05-07T07:37:53;1.00;;;1.00;;
7879;SDS011;3985;49.366;2.738;2023-05-07T07:40:21;0.75;;;0.75;;
7879;SDS011;3985;49.366;2.738;2023-05-07T07:42:48;4.25;;;1.25;;
7879;SDS011;3985;49.366;2.738;2023-05-07T07:45:15;1.25;;;1.25;;
7879;SDS011;3985;49.366;2.738;2023-05-07T07:47:42;2.00;;;2.00;;
7879;SDS011;3985;49.366;2.738;2023-05-07T07:50:10;2.25;;;2.25;;
7879;SDS011;3985;49.366;2.738;2023-05-07T07:52:37;2.00;;;2.00;;
7879;SDS011;3985;49.366;2.738;2023-05-07T07:55:06;2.00;;;2.00;;
7879;SDS011;3985;49.366;2.738;2023-05-07T07:57:34;1.00;;;1.00;;
7879;SDS011;3985;49.366;2.738;2023-05-07T08:00:01;1.00;;;1.00;;
7879;SDS011;3985;49.366;2.738;2023-05-07T08:02:29;1.00;;;1.00;;
7879;SDS011;3985;49.366;2.738;2023-05-07T08:04:56;1.00;;;1.00;;
7879;SDS011;3985;49.366;2.738;2023-05-07T08:07:23;0.75;;;0.75;;
7879;SDS011;3985;49.366;2.738;2023-05-07T08:09:50;1.00;;;1.00;;
7879;SDS011;3985;49.366;2.738;2023-05-07T08:12:19;1.00;;;1.00;;
7879;SDS011;3985;49.366;2.738;2023-05-07T08:14:46;0.00;;;0.00;;
7879;SDS011;3985;49.366;2.738;2023-05-07T08:17:16;1.50;;;1.50;;
7879;SDS011;3985;49.366;2.738;2023-05-07T08:19:43;1.00;;;1.00;;
7879;SDS011;3985;49.366;2.738;2023-05-07T08:22:10;2.00;;;2.00;;
7879;SDS011;3985;49.366;2.738;2023-05-07T08:24:38;2.00;;;2.00;;
7879;SDS011;3985;49.366;2.738;2023-05-07T08:27:05;1.25;;;1.25;;
7879;SDS011;3985;49.366;2.738;2023-05-07T08:29:33;2.50;;;2.00;;
7879;SDS011;3985;49.366;2.738;2023-05-07T08:32:00;2.50;;;2.50;;
7879;SDS011;3985;49.366;2.738;2023-05-07T08:34:28;2.00;;;2.00;;
7879;SDS011;3985;49.366;2.738;2023-05-07T08:36:55;2.50;;;2.00;;
7879;SDS011;3985;49.366;2.738;2023-05-07T08:39:22;3.00;;;3.00;;
7879;SDS011;3985;49.366;2.738;2023-05-07T08:41:49;2.75;;;2.75;;
7879;SDS011;3985;49.366;2.738;2023-05-07T08:44:22;3.00;;;3.00;;
7879;SDS011;3985;49.366;2.738;2023-05-07T08:46:51;1.40;;;1.40;;
7879;SDS011;3985;49.366;2.738;2023-05-07T08:49:19;2.00;;;2.00;;
7879;SDS011;3985;49.366;2.738;2023-05-07T08:51:46;3.00;;;2.75;;
7879;SDS011;3985;49.366;2.738;2023-05-07T08:54:15;2.00;;;2.00;;
7879;SDS011;3985;49.366;2.738;2023-05-07T08:56:43;4.00;;;4.00;;
7879;SDS011;3985;49.366;2.738;2023-05-07T08:59:10;3.50;;;3.50;;
7879;SDS011;3985;49.366;2.738;2023-05-07T09:01:37;3.00;;;3.00;;
7879;SDS011;3985;49.366;2.738;2023-05-07T09:04:06;3.00;;;3.00;;
7879;SDS011;3985;49.366;2.738;2023-05-07T09:06:34;3.75;;;3.75;;
7879;SDS011;3985;49.366;2.738;2023-05-07T09:09:03;3.00;;;3.00;;
7879;SDS011;3985;49.366;2.738;2023-05-07T09:11:33;5.25;;;5.25;;
7879;SDS011;3985;49.366;2.738;2023-05-07T09:14:00;6.00;;;6.00;;
7879;SDS011;3985;49.366;2.738;2023-05-07T09:16:28;3.75;;;3.75;;
7879;SDS011;3985;49.366;2.738;2023-05-07T09:18:56;3.20;;;3.20;;
7879;SDS011;3985;49.366;2.738;2023-05-07T09:21:26;3.80;;;3.80;;
7879;SDS011;3985;49.366;2.738;2023-05-07T09:23:54;3.60;;;3.60;;
7879;SDS011;3985;49.366;2.738;2023-05-07T09:26:22;3.40;;;2.00;;
7879;SDS011;3985;49.366;2.738;2023-05-07T09:28:50;3.00;;;3.00;;
7879;SDS011;3985;49.366;2.738;2023-05-07T09:31:17;3.80;;;3.80;;
7879;SDS011;3985;49.366;2.738;2023-05-07T09:33:50;2.80;;;2.80;;
7879;SDS011;3985;49.366;2.738;2023-05-07T09:36:19;3.40;;;3.00;;
7879;SDS011;3985;49.366;2.738;2023-05-07T09:38:48;2.00;;;2.00;;
7879;SDS011;3985;49.366;2.738;2023-05-07T09:41:16;2.80;;;2.80;;
7879;SDS011;3985;49.366;2.738;2023-05-07T09:43:43;2.60;;;2.60;;
7879;SDS011;3985;49.366;2.738;2023-05-07T09:46:11;2.20;;;2.20;;
7879;SDS011;3985;49.366;2.738;2023-05-07T09:48:40;2.00;;;2.00;;
7879;SDS011;3985;49.366;2.738;2023-05-07T09:51:15;2.00;;;2.00;;
7879;SDS011;3985;49.366;2.738;2023-05-07T09:53:49;2.00;;;2.00;;
7879;SDS011;3985;49.366;2.738;2023-05-07T09:56:17;3.00;;;2.00;;
7879;SDS011;3985;49.366;2.738;2023-05-07T09:58:45;2.60;;;2.00;;
7879;SDS011;3985;49.366;2.738;2023-05-07T10:01:13;1.80;;;1.80;;
7879;SDS011;3985;49.366;2.738;2023-05-07T10:03:40;1.80;;;1.80;;
7879;SDS011;3985;49.366;2.738;2023-05-07T10:06:08;1.00;;;1.00;;
7879;SDS011;3985;49.366;2.738;2023-05-07T10:08:36;1.80;;;1.80;;
7879;SDS011;3985;49.366;2.738;2023-05-07T10:11:05;3.00;;;3.00;;
7879;SDS011;3985;49.366;2.738;2023-05-07T10:13:32;2.00;;;2.00;;
7879;SDS011;3985;49.366;2.738;2023-05-07T10:16:03;2.00;;;2.00;;
7879;SDS011;3985;49.366;2.738;2023-05-07T10:18:40;2.00;;;2.00;;
7879;SDS011;3985;49.366;2.738;2023-05-07T10:21:08;2.00;;;2.00;;
7879;SDS011;3985;49.366;2.738;2023-05-07T10:23:37;1.20;;;1.20;;
7879;SDS011;3985;49.366;2.738;2023-05-07T10:26:07;2.00;;;2.00;;
7879;SDS011;3985;49.366;2.738;2023-05-07T10:28:36;5.20;;;2.60;;
7879;SDS011;3985;49.366;2.738;2023-05-07T10:31:14;3.40;;;1.40;;
7879;SDS011;3985;49.366;2.738;2023-05-07T10:33:48;2.00;;;2.00;;
7879;SDS011;3985;49.366;2.738;2023-05-07T10:36:16;1.00;;;1.00;;
7879;SDS011;3985;49.366;2.738;2023-05-07T10:38:44;3.00;;;1.20;;
7879;SDS011;3985;49.366;2.738;2023-05-07T10:41:13;4.60;;;3.40;;
7879;SDS011;3985;49.366;2.738;2023-05-07T10:43:42;2.60;;;2.60;;
7879;SDS011;3985;49.366;2.738;2023-05-07T10:46:10;1.40;;;1.40;;
7879;SDS011;3985;49.366;2.738;2023-05-07T10:51:36;1.60;;;1.60;;
7879;SDS011;3985;49.366;2.738;2023-05-07T10:54:19;2.00;;;2.00;;
7879;SDS011;3985;49.366;2.738;2023-05-07T10:56:49;0.00;;;0.00;;
7879;SDS011;3985;49.366;2.738;2023-05-07T10:59:32;1.40;;;1.40;;
7879;SDS011;3985;49.366;2.738;2023-05-07T11:02:06;1.00;;;1.00;;
7879;SDS011;3985;49.366;2.738;2023-05-07T11:04:36;2.00;;;2.00;;
7879;SDS011;3985;49.366;2.738;2023-05-07T11:10:02;2.00;;;2.00;;
7879;SDS011;3985;49.366;2.738;2023-05-07T11:15:33;2.40;;;2.00;;
7879;SDS011;3985;49.366;2.738;2023-05-07T11:18:11;2.80;;;2.00;;
7879;SDS011;3985;49.366;2.738;2023-05-07T11:20:46;3.00;;;3.00;;
7879;SDS011;3985;49.366;2.738;2023-05-07T11:26:22;3.00;;;2.00;;
7879;SDS011;3985;49.366;2.738;2023-05-07T11:28:51;3.00;;;3.00;;
7879;SDS011;3985;49.366;2.738;2023-05-07T11:31:23;3.00;;;3.00;;
7879;SDS011;3985;49.366;2.738;2023-05-07T11:33:51;1.40;;;1.40;;
7879;SDS011;3985;49.366;2.738;2023-05-07T11:36:21;3.00;;;1.20;;
7879;SDS011;3985;49.366;2.738;2023-05-07T11:38:50;2.00;;;2.00;;
7879;SDS011;3985;49.366;2.738;2023-05-07T11:41:19;1.00;;;1.00;;
7879;SDS011;3985;49.366;2.738;2023-05-07T11:43:55;2.00;;;2.00;;
7879;SDS011;3985;49.366;2.738;2023-05-07T11:46:23;1.20;;;1.20;;
7879;SDS011;3985;49.366;2.738;2023-05-07T11:48:50;1.00;;;1.00;;
7879;SDS011;3985;49.366;2.738;2023-05-07T11:51:21;2.00;;;2.00;;
7879;SDS011;3985;49.366;2.738;2023-05-07T11:53:49;1.00;;;1.00;;
7879;SDS011;3985;49.366;2.738;2023-05-07T11:56:17;2.00;;;2.00;;
7879;SDS011;3985;49.366;2.738;2023-05-07T11:58:45;1.00;;;1.00;;
7879;SDS011;3985;49.366;2.738;2023-05-07T12:01:15;3.40;;;3.40;;
7879;SDS011;3985;49.366;2.738;2023-05-07T12:03:45;1.80;;;1.80;;
7879;SDS011;3985;49.366;2.738;2023-05-07T12:06:13;2.00;;;2.00;;
7879;SDS011;3985;49.366;2.738;2023-05-07T12:08:41;0.60;;;0.60;;
7879;SDS011;3985;49.366;2.738;2023-05-07T12:11:15;1.60;;;1.60;;
7879;SDS011;3985;49.366;2.738;2023-05-07T12:13:43;0.00;;;0.00;;
7879;SDS011;3985;49.366;2.738;2023-05-07T12:16:11;2.20;;;1.40;;
7879;SDS011;3985;49.366;2.738;2023-05-07T12:18:39;0.00;;;0.00;;
7879;SDS011;3985;49.366;2.738;2023-05-07T12:21:07;0.00;;;0.00;;
7879;SDS011;3985;49.366;2.738;2023-05-07T12:23:36;0.00;;;0.00;;
7879;SDS011;3985;49.366;2.738;2023-05-07T12:26:03;1.00;;;1.00;;
7879;SDS011;3985;49.366;2.738;2023-05-07T12:28:31;0.60;;;0.60;;
7879;SDS011;3985;49.366;2.738;2023-05-07T12:31:03;0.60;;;0.60;;
7879;SDS011;3985;49.366;2.738;2023-05-07T12:33:30;0.20;;;0.20;;
7879;SDS011;3985;49.366;2.738;2023-05-07T12:36:02;6.40;;;5.20;;
7879;SDS011;3985;49.366;2.738;2023-05-07T12:38:33;2.00;;;2.00;;
7879;SDS011;3985;49.366;2.738;2023-05-07T12:41:02;3.00;;;3.00;;
7879;SDS011;3985;49.366;2.738;2023-05-07T12:43:29;0.80;;;0.80;;
7879;SDS011;3985;49.366;2.738;2023-05-07T12:45:57;0.80;;;0.80;;
7879;SDS011;3985;49.366;2.738;2023-05-07T12:48:26;1.00;;;1.00;;
7879;SDS011;3985;49.366;2.738;2023-05-07T12:50:54;2.60;;;2.60;;
7879;SDS011;3985;49.366;2.738;2023-05-07T12:53:23;3.80;;;3.80;;
7879;SDS011;3985;49.366;2.738;2023-05-07T12:55:51;4.00;;;4.00;;
7879;SDS011;3985;49.366;2.738;2023-05-07T12:58:20;3.20;;;3.20;;
7879;SDS011;3985;49.366;2.738;2023-05-07T13:00:51;3.80;;;2.00;;
7879;SDS011;3985;49.366;2.738;2023-05-07T13:03:21;2.80;;;2.80;;
7879;SDS011;3985;49.366;2.738;2023-05-07T13:05:50;3.80;;;2.40;;
7879;SDS011;3985;49.366;2.738;2023-05-07T13:08:25;3.40;;;3.00;;
7879;SDS011;3985;49.366;2.738;2023-05-07T13:10:53;3.80;;;3.00;;
7879;SDS011;3985;49.366;2.738;2023-05-07T13:13:20;3.40;;;2.40;;
7879;SDS011;3985;49.366;2.738;2023-05-07T13:15:48;2.00;;;2.00;;
7879;SDS011;3985;49.366;2.738;2023-05-07T13:18:15;2.00;;;2.00;;
7879;SDS011;3985;49.366;2.738;2023-05-07T13:20:42;2.80;;;2.80;;
7879;SDS011;3985;49.366;2.738;2023-05-07T13:23:10;9.60;;;7.80;;
7879;SDS011;3985;49.366;2.738;2023-05-07T13:25:38;10.20;;;10.20;;
7879;SDS011;3985;49.366;2.738;2023-05-07T13:28:05;2.00;;;2.00;;
7879;SDS011;3985;49.366;2.738;2023-05-07T13:30:33;2.00;;;2.00;;
7879;SDS011;3985;49.366;2.738;2023-05-07T13:33:00;3.40;;;2.00;;
7879;SDS011;3985;49.366;2.738;2023-05-07T13:35:27;2.40;;;0.80;;
7879;SDS011;3985;49.366;2.738;2023-05-07T13:37:55;2.00;;;0.60;;
7879;SDS011;3985;49.366;2.738;2023-05-07T13:40:22;1.00;;;1.00;;
7879;SDS011;3985;49.366;2.738;2023-05-07T13:42:51;0.00;;;0.00;;
7879;SDS011;3985;49.366;2.738;2023-05-07T13:45:20;0.00;;;0.00;;
7879;SDS011;3985;49.366;2.738;2023-05-07T13:47:51;1.00;;;1.00;;
7879;SDS011;3985;49.366;2.738;2023-05-07T13:50:18;0.40;;;0.40;;
7879;SDS011;3985;49.366;2.738;2023-05-07T13:52:45;0.00;;;0.00;;
7879;SDS011;3985;49.366;2.738;2023-05-07T13:55:15;0.60;;;0.60;;
7879;SDS011;3985;49.366;2.738;2023-05-07T13:57:43;0.40;;;0.40;;
7879;SDS011;3985;49.366;2.738;2023-05-07T14:00:13;1.40;;;0.00;;
7879;SDS011;3985;49.366;2.738;2023-05-07T14:02:41;0.00;;;0.00;;
7879;SDS011;3985;49.366;2.738;2023-05-07T14:05:08;0.00;;;0.00;;
7879;SDS011;3985;49.366;2.738;2023-05-07T14:07:36;0.20;;;0.20;;
7879;SDS011;3985;49.366;2.738;2023-05-07T14:10:03;0.00;;;0.00;;
7879;SDS011;3985;49.366;2.738;2023-05-07T14:12:34;1.00;;;1.00;;
7879;SDS011;3985;49.366;2.738;2023-05-07T14:15:01;0.80;;;0.80;;
7879;SDS011;3985;49.366;2.738;2023-05-07T14:17:33;1.00;;;1.00;;
7879;SDS011;3985;49.366;2.738;2023-05-07T14:20:00;1.00;;;1.00;;
7879;SDS011;3985;49.366;2.738;2023-05-07T14:22:27;0.60;;;0.00;;
7879;SDS011;3985;49.366;2.738;2023-05-07T14:24:55;1.00;;;1.00;;
7879;SDS011;3985;49.366;2.738;2023-05-07T14:27:22;2.00;;;2.00;;
7879;SDS011;3985;49.366;2.738;2023-05-07T14:29:49;1.60;;;1.60;;
7879;SDS011;3985;49.366;2.738;2023-05-07T14:32:17;1.00;;;1.00;;
7879;SDS011;3985;49.366;2.738;2023-05-07T14:34:47;1.00;;;1.00;;
7879;SDS011;3985;49.366;2.738;2023-05-07T14:37:15;2.60;;;2.60;;
7879;SDS011;3985;49.366;2.738;2023-05-07T14:39:44;2.00;;;2.00;;
7879;SDS011;3985;49.366;2.738;2023-05-07T14:42:12;3.00;;;3.00;;
7879;SDS011;3985;49.366;2.738;2023-05-07T14:44:39;4.00;;;4.00;;
7879;SDS011;3985;49.366;2.738;2023-05-07T14:47:07;2.80;;;2.80;;
7879;SDS011;3985;49.366;2.738;2023-05-07T14:49:34;3.00;;;3.00;;
7879;SDS011;3985;49.366;2.738;2023-05-07T14:52:07;2.00;;;2.00;;
7879;SDS011;3985;49.366;2.738;2023-05-07T14:54:35;2.00;;;2.00;;
7879;SDS011;3985;49.366;2.738;2023-05-07T14:57:02;2.60;;;2.60;;
7879;SDS011;3985;49.366;2.738;2023-05-07T14:59:33;1.00;;;1.00;;
7879;SDS011;3985;49.366;2.738;2023-05-07T15:02:03;1.80;;;1.80;;
7879;SDS011;3985;49.366;2.738;2023-05-07T15:04:32;1.00;;;1.00;;
7879;SDS011;3985;49.366;2.738;2023-05-07T15:06:59;1.00;;;1.00;;
7879;SDS011;3985;49.366;2.738;2023-05-07T15:09:28;2.80;;;2.80;;
7879;SDS011;3985;49.366;2.738;2023-05-07T15:11:56;0.80;;;0.80;;
7879;SDS011;3985;49.366;2.738;2023-05-07T15:14:23;2.00;;;2.00;;
7879;SDS011;3985;49.366;2.738;2023-05-07T15:16:50;2.80;;;1.60;;
7879;SDS011;3985;49.366;2.738;2023-05-07T15:19:17;1.40;;;1.40;;
7879;SDS011;3985;49.366;2.738;2023-05-07T15:21:44;0.80;;;0.80;;
7879;SDS011;3985;49.366;2.738;2023-05-07T15:24:11;0.80;;;0.80;;
7879;SDS011;3985;49.366;2.738;2023-05-07T15:26:40;0.80;;;0.80;;
7879;SDS011;3985;49.366;2.738;2023-05-07T15:29:07;0.00;;;0.00;;
7879;SDS011;3985;49.366;2.738;2023-05-07T15:31:35;2.00;;;0.00;;
7879;SDS011;3985;49.366;2.738;2023-05-07T15:34:03;0.00;;;0.00;;
7879;SDS011;3985;49.366;2.738;2023-05-07T15:36:30;0.00;;;0.00;;
7879;SDS011;3985;49.366;2.738;2023-05-07T15:38:57;0.00;;;0.00;;